Time;durP1;ratioP1;P1;durP2;ratioP2;P2;SDS_P1;SDS_P2;PMS_P1;PMS_P2;Temp;Humidity;BMP_temperature;BMP_pressure;BME280_temperature;BME280_humidity;BME280_pressure;Samples;Min_cycle;Max_cycle;Signal;HPM_P1;HPM_P2
2023/03/04 05:22:32;;;;;;;11.45;5.10;;;;;;;-2.88;100.00;100946.06;5089105;28;20397;-67
2023/03/04 05:24:57;;;;;;;17.23;7.18;;;;;;;-2.90;100.00;100945.28;5088974;28;20048;-68
2023/03/04 05:27:23;;;;;;;21.73;8.13;;;;;;;-2.91;100.00;100953.19;5087687;28;20028;-67
2023/03/04 05:29:48;;;;;;;17.45;8.45;;;;;;;-2.89;100.00;100948.75;5088952;28;20039;-67
2023/03/04 05:32:13;;;;;;;17.70;7.40;;;;;;;-2.95;100.00;100946.41;5088968;28;20554;-68
2023/03/04 05:34:39;;;;;;;16.15;9.80;;;;;;;-2.92;100.00;100943.69;5088854;28;20438;-67
2023/03/04 05:37:04;;;;;;;29.75;9.23;;;;;;;-2.93;100.00;100940.25;5088622;28;20044;-68
2023/03/04 05:39:29;;;;;;;22.70;8.32;;;;;;;-2.95;100.00;100943.81;5088721;28;20044;-67
2023/03/04 05:41:55;;;;;;;16.35;8.73;;;;;;;-3.06;100.00;100932.13;5088606;28;20481;-67
2023/03/04 05:44:20;;;;;;;15.88;7.78;;;;;;;-2.96;100.00;100955.16;5088694;28;20460;-67
2023/03/04 05:46:46;;;;;;;16.95;8.57;;;;;;;-2.93;100.00;100953.28;5088606;28;20399;-67
2023/03/04 05:49:11;;;;;;;19.85;8.13;;;;;;;-2.93;100.00;100958.50;5088397;28;20036;-67
2023/03/04 05:51:36;;;;;;;23.42;7.78;;;;;;;-2.99;100.00;100958.75;5088789;28;20127;-68
2023/03/04 05:54:02;;;;;;;16.38;8.57;;;;;;;-2.99;100.00;100953.56;5088500;28;20123;-68
2023/03/04 05:56:29;;;;;;;14.88;7.85;;;;;;;-2.98;100.00;100957.00;5087148;28;20040;-68
2023/03/04 05:58:58;;;;;;;19.75;9.95;;;;;;;-2.98;100.00;100963.06;5088089;28;20032;-68
2023/03/04 06:01:24;;;;;;;20.98;9.80;;;;;;;-3.04;100.00;100958.97;5088325;28;20500;-67
2023/03/04 06:03:49;;;;;;;21.65;9.07;;;;;;;-3.05;100.00;100965.09;5088372;28;20028;-68
2023/03/04 06:06:15;;;;;;;13.82;7.75;;;;;;;-3.06;100.00;100960.81;5088227;28;20040;-68
2023/03/04 06:08:40;;;;;;;23.63;9.50;;;;;;;-2.96;100.00;100965.59;5087920;28;20040;-67
2023/03/04 06:11:06;;;;;;;19.92;8.02;;;;;;;-2.91;100.00;100977.50;5088282;28;20055;-67
2023/03/04 06:13:33;;;;;;;19.50;9.30;;;;;;;-2.95;100.00;100977.69;5088096;28;20390;-66
2023/03/04 06:15:59;;;;;;;12.65;6.43;;;;;;;-2.99;100.00;100978.78;5088086;28;20040;-67
2023/03/04 06:18:26;;;;;;;18.25;6.50;;;;;;;-2.95;100.00;100972.50;5087852;28;20043;-67
2023/03/04 06:20:57;;;;;;;11.73;6.70;;;;;;;-2.98;100.00;100986.53;5087886;28;20119;-67
2023/03/04 06:23:23;;;;;;;20.05;8.25;;;;;;;-3.03;100.00;100983.25;5088004;28;20032;-68
2023/03/04 06:25:52;;;;;;;17.50;8.93;;;;;;;-3.01;100.00;100987.50;5087886;28;20089;-66
2023/03/04 06:28:18;;;;;;;22.65;8.73;;;;;;;-2.99;100.00;100984.00;5087572;28;20071;-66
2023/03/04 06:30:43;;;;;;;18.65;8.00;;;;;;;-2.99;100.00;100989.22;5087858;28;20060;-66
2023/03/04 06:33:08;;;;;;;21.73;8.30;;;;;;;-2.94;100.00;100995.03;5078655;28;20036;-66
2023/03/04 06:35:34;;;;;;;17.70;8.20;;;;;;;-2.94;100.00;100990.66;5074223;28;20036;-67
2023/03/04 06:37:59;;;;;;;14.10;6.57;;;;;;;-2.87;100.00;100996.44;5073824;28;20044;-70
2023/03/04 06:40:24;;;;;;;28.60;10.35;;;;;;;-2.82;100.00;100995.31;5074118;28;20041;-67
2023/03/04 06:42:50;;;;;;;19.58;6.45;;;;;;;-2.80;100.00;101000.50;5074227;28;20072;-67
2023/03/04 06:45:15;;;;;;;21.88;6.68;;;;;;;-2.74;100.00;100993.25;5074014;28;20068;-66
2023/03/04 06:47:41;;;;;;;19.02;9.00;;;;;;;-2.65;100.00;100996.34;5073796;28;20123;-67
2023/03/04 06:50:08;;;;;;;12.68;7.95;;;;;;;-2.60;100.00;100990.00;5074023;28;20041;-67
2023/03/04 06:52:33;;;;;;;19.17;8.70;;;;;;;-2.50;100.00;100998.22;5073948;28;20102;-67
2023/03/04 06:54:59;;;;;;;18.55;8.48;;;;;;;-2.50;100.00;100991.22;5072661;28;20033;-68
2023/03/04 06:57:25;;;;;;;16.17;9.02;;;;;;;-2.35;100.00;100989.66;5073382;28;20082;-67
2023/03/04 06:59:50;;;;;;;22.33;8.98;;;;;;;-2.27;100.00;100999.75;5073841;28;20175;-67
2023/03/04 07:02:15;;;;;;;30.17;8.18;;;;;;;-2.19;100.00;101006.28;5073729;28;20056;-67
2023/03/04 07:04:41;;;;;;;26.00;9.63;;;;;;;-2.13;100.00;100997.31;5073708;28;20553;-66
2023/03/04 07:07:06;;;;;;;16.85;8.02;;;;;;;-2.00;100.00;101003.63;5072162;28;20036;-66
2023/03/04 07:09:32;;;;;;;23.60;8.60;;;;;;;-1.94;100.00;101005.13;5073673;28;20036;-67
2023/03/04 07:11:57;;;;;;;19.30;8.50;;;;;;;-1.79;100.00;101003.50;5073513;28;20143;-67
2023/03/04 07:14:23;;;;;;;16.42;7.68;;;;;;;-1.70;100.00;101016.94;5072317;28;20488;-66
2023/03/04 07:16:48;;;;;;;29.02;10.65;;;;;;;-1.68;100.00;101017.72;5073416;28;20415;-66
2023/03/04 07:19:13;;;;;;;28.77;10.30;;;;;;;-1.61;100.00;101022.66;5073145;28;20047;-66
2023/03/04 07:21:39;;;;;;;18.42;8.55;;;;;;;-1.58;100.00;101023.31;5072009;28;20556;-66
2023/03/04 07:24:04;;;;;;;24.73;10.00;;;;;;;-1.52;100.00;101022.19;5073333;28;20037;-66
2023/03/04 07:26:30;;;;;;;25.15;9.30;;;;;;;-1.46;100.00;101025.31;5073331;28;20036;-66
2023/03/04 07:28:57;;;;;;;24.45;8.85;;;;;;;-1.41;100.00;101025.94;5073030;28;20374;-66
2023/03/04 07:31:28;;;;;;;21.20;9.10;;;;;;;-1.35;100.00;101019.56;5073196;28;20032;-66
2023/03/04 07:33:59;;;;;;;22.40;8.52;;;;;;;-1.27;100.00;101032.25;5073183;28;20624;-66
2023/03/04 07:36:25;;;;;;;21.98;9.90;;;;;;;-1.21;100.00;101029.31;5073040;28;20123;-66
2023/03/04 07:38:53;;;;;;;17.08;9.88;;;;;;;-1.17;100.00;101028.25;5072853;28;20614;-67
2023/03/04 07:41:20;;;;;;;24.23;10.73;;;;;;;-1.07;100.00;101031.22;5073036;28;20028;-65
2023/03/04 07:43:45;;;;;;;20.88;9.13;;;;;;;-1.01;100.00;101033.50;5072413;28;20052;-65
2023/03/04 07:46:11;;;;;;;21.08;9.35;;;;;;;-0.91;100.00;101032.09;5072713;28;20040;-66
2023/03/04 07:48:37;;;;;;;22.70;10.70;;;;;;;-0.89;100.00;101025.03;5072752;28;20086;-65
2023/03/04 07:51:11;;;;;;;26.52;11.18;;;;;;;-0.72;100.00;101045.03;5072823;28;20485;-65
2023/03/04 07:53:38;;;;;;;25.17;9.38;;;;;;;-0.67;100.00;101040.41;5072786;28;20043;-64
2023/03/04 07:56:04;;;;;;;27.38;10.05;;;;;;;-0.58;100.00;101048.63;5072875;28;20032;-61
2023/03/04 07:58:30;;;;;;;24.90;10.55;;;;;;;-0.49;100.00;101052.50;5072408;28;20120;-63
2023/03/04 08:00:56;;;;;;;20.38;10.02;;;;;;;-0.42;100.00;101048.63;5072856;28;20074;-61
2023/03/04 08:03:21;;;;;;;25.67;11.23;;;;;;;-0.41;100.00;101045.06;5072581;28;20481;-63
2023/03/04 08:05:47;;;;;;;28.58;10.02;;;;;;;-0.27;100.00;101045.16;5072522;28;20033;-62
2023/03/04 08:08:12;;;;;;;25.15;9.73;;;;;;;-0.14;100.00;101061.03;5072207;28;20393;-63
2023/03/04 08:10:38;;;;;;;27.70;9.98;;;;;;;-0.05;100.00;101057.09;5072399;28;20091;-63
2023/03/04 08:13:07;;;;;;;23.95;10.32;;;;;;;0.01;100.00;101045.41;5072490;28;20097;-57
2023/03/04 08:15:34;;;;;;;30.08;9.85;;;;;;;0.13;100.00;101055.19;5072315;28;20045;-61
2023/03/04 08:18:00;;;;;;;29.83;11.38;;;;;;;0.19;100.00;101058.28;5071702;28;20394;-60
2023/03/04 08:20:26;;;;;;;27.48;9.32;;;;;;;0.28;100.00;101061.34;5072025;28;20043;-62
2023/03/04 08:22:52;;;;;;;29.98;10.77;;;;;;;0.37;100.00;101053.78;5072152;28;20040;-62
2023/03/04 08:25:17;;;;;;;23.90;10.70;;;;;;;0.45;100.00;101050.72;5072096;28;20074;-63
2023/03/04 08:27:43;;;;;;;29.17;9.10;;;;;;;0.52;100.00;101052.06;5071867;28;20486;-61
2023/03/04 08:30:09;;;;;;;30.30;11.57;;;;;;;0.64;100.00;101053.97;5072149;28;20056;-62
2023/03/04 08:32:34;;;;;;;25.65;9.63;;;;;;;0.75;100.00;101053.34;5072021;28;20045;-62
2023/03/04 08:35:01;;;;;;;25.02;11.02;;;;;;;0.85;100.00;101051.00;5071997;28;20427;-60
2023/03/04 08:37:28;;;;;;;27.20;11.65;;;;;;;0.92;100.00;101061.06;5071440;28;20040;-63
2023/03/04 08:39:53;;;;;;;28.17;9.80;;;;;;;0.96;100.00;101040.72;5071894;28;20459;-63
2023/03/04 08:42:19;;;;;;;26.15;10.85;;;;;;;1.05;100.00;101041.03;5071891;28;20037;-62
2023/03/04 08:44:44;;;;;;;25.38;9.65;;;;;;;1.17;100.00;101054.31;5071815;28;20028;-62
2023/03/04 08:47:11;;;;;;;33.35;11.70;;;;;;;1.27;100.00;101055.44;5071424;28;20537;-62
2023/03/04 08:49:36;;;;;;;22.17;11.10;;;;;;;1.41;100.00;101049.34;5071723;28;20475;-63
2023/03/04 08:52:02;;;;;;;30.63;11.38;;;;;;;1.52;100.00;101057.41;5071503;28;20041;-63
2023/03/04 08:54:27;;;;;;;27.63;10.85;;;;;;;1.60;100.00;101053.34;5071491;28;20041;-65
2023/03/04 08:56:52;;;;;;;36.50;11.70;;;;;;;1.68;100.00;101047.63;5071254;28;20116;-65
2023/03/04 08:59:18;;;;;;;36.35;11.82;;;;;;;1.84;100.00;101050.13;5071445;28;20396;-65
2023/03/04 09:01:43;;;;;;;32.55;11.52;;;;;;;1.84;100.00;101026.47;5071656;28;20037;-65
2023/03/04 09:04:08;;;;;;;26.63;10.85;;;;;;;2.06;100.00;101045.16;5070242;28;20036;-65
2023/03/04 09:06:34;;;;;;;26.30;10.77;;;;;;;2.13;100.00;101046.44;5071353;28;20036;-65
2023/03/04 09:08:59;;;;;;;27.27;11.82;;;;;;;2.28;100.00;101052.53;5071227;28;20040;-65
2023/03/04 09:11:25;;;;;;;31.60;11.27;;;;;;;2.39;100.00;101052.63;5071632;28;20081;-66
2023/03/04 09:13:50;;;;;;;34.78;10.10;;;;;;;2.53;100.00;101043.00;5071443;28;20097;-66
2023/03/04 09:16:16;;;;;;;27.10;11.88;;;;;;;2.66;98.27;101038.59;5071281;28;20451;-67
2023/03/04 09:18:42;;;;;;;25.90;10.95;;;;;;;2.80;97.08;101043.75;5071029;28;20044;-66
2023/03/04 09:21:08;;;;;;;30.58;10.40;;;;;;;2.82;92.20;101044.53;5071278;28;20123;-66
2023/03/04 09:23:34;;;;;;;25.20;10.80;;;;;;;2.78;88.55;101043.03;5071184;28;20045;-66
2023/03/04 09:25:59;;;;;;;25.48;10.82;;;;;;;2.94;87.49;101048.09;5071261;28;20044;-64
2023/03/04 09:28:25;;;;;;;27.77;12.32;;;;;;;3.10;88.06;101042.63;5069690;28;20110;-69
2023/03/04 09:30:50;;;;;;;26.55;11.15;;;;;;;3.22;87.82;101050.50;5071221;28;20047;-66
2023/03/04 09:33:16;;;;;;;35.38;12.50;;;;;;;3.37;85.98;101051.22;5071274;28;20033;-68
2023/03/04 09:35:42;;;;;;;30.00;12.05;;;;;;;3.42;84.84;101049.13;5071069;28;20604;-65
2023/03/04 09:38:07;;;;;;;30.90;13.50;;;;;;;3.57;87.15;101046.34;5071017;28;20489;-66
2023/03/04 09:40:40;;;;;;;29.92;12.18;;;;;;;3.66;84.77;101059.72;5071199;28;20045;-67
2023/03/04 09:43:10;;;;;;;25.80;11.23;;;;;;;3.63;82.83;101051.19;5071290;28;20041;-66
2023/03/04 09:45:52;;;;;;;27.98;13.02;;;;;;;3.80;83.19;101061.38;5071097;28;20119;-66
2023/03/04 09:48:21;;;;;;;32.78;11.07;;;;;;;3.89;82.84;101058.06;5070767;28;20394;-67
2023/03/04 09:50:52;;;;;;;31.85;11.77;;;;;;;3.91;84.71;101061.47;5071022;28;20394;-66
2023/03/04 09:53:45;;;;;;;27.17;11.60;;;;;;;3.94;83.09;101055.94;5071185;28;20039;-67
2023/03/04 09:56:12;;;;;;;23.23;10.48;;;;;;;3.91;85.00;101056.19;5071052;28;20028;-66
2023/03/04 09:58:52;;;;;;;34.53;11.47;;;;;;;4.05;85.27;101060.44;5069481;28;20068;-67
2023/03/04 10:01:41;;;;;;;37.03;14.20;;;;;;;3.90;83.37;101059.75;5071047;28;20850;-68
2023/03/04 10:04:21;;;;;;;27.65;11.23;;;;;;;4.00;81.19;101054.66;5071038;28;20082;-67
2023/03/04 10:06:53;;;;;;;26.73;12.23;;;;;;;4.18;80.61;101042.78;5070706;28;20044;-67
2023/03/04 10:09:31;;;;;;;30.58;11.98;;;;;;;4.23;79.41;101055.59;5074344;28;20048;-65
2023/03/04 10:12:01;;;;;;;39.45;12.85;;;;;;;4.29;78.72;101055.16;5074624;28;20036;-66
2023/03/04 10:14:41;;;;;;;39.90;14.02;;;;;;;4.52;74.74;101049.03;5074773;28;20036;-66
2023/03/04 10:17:16;;;;;;;44.95;14.70;;;;;;;3.94;76.61;101060.38;5074260;28;20453;-69
2023/03/04 10:20:02;;;;;;;34.83;13.38;;;;;;;4.13;76.94;101054.63;5073180;28;20131;-67
2023/03/04 10:22:47;;;;;;;33.70;12.98;;;;;;;4.07;79.22;101051.47;5074390;28;20489;-66
2023/03/04 10:25:24;;;;;;;36.10;13.45;;;;;;;4.22;81.08;101049.50;5074374;28;20104;-65
2023/03/04 10:27:56;;;;;;;31.42;12.77;;;;;;;4.48;77.53;101042.28;5074007;28;20504;-66
2023/03/04 10:30:45;;;;;;;30.75;11.55;;;;;;;4.70;75.32;101048.63;5074584;28;20135;-66
2023/03/04 10:33:17;;;;;;;29.35;11.30;;;;;;;4.62;75.97;101050.00;5056511;28;20089;-66
2023/03/04 10:35:47;;;;;;;34.38;12.25;;;;;;;4.48;77.51;101044.94;5074282;28;20024;-66
2023/03/04 10:38:12;;;;;;;43.15;14.20;;;;;;;4.51;76.14;101044.72;5073956;28;20032;-67
2023/03/04 10:40:40;;;;;;;36.75;14.13;;;;;;;4.54;75.14;101041.81;5074135;28;20056;-66
2023/03/04 10:43:12;;;;;;;;;;;;;;;4.57;74.65;101046.06;5074487;28;20040;-65
2023/03/04 10:45:39;;;;;;;34.63;12.43;;;;;;;4.53;73.75;101034.88;5073998;28;20289;-66
2023/03/04 10:48:04;;;;;;;29.55;12.25;;;;;;;4.40;71.82;101036.75;5073619;28;20063;-66
2023/03/04 10:50:31;;;;;;;35.67;12.30;;;;;;;4.43;72.67;101036.50;5073942;28;20045;-66
2023/03/04 10:52:57;;;;;;;32.25;12.27;;;;;;;4.28;73.91;101038.50;5073953;28;20044;-67
2023/03/04 10:55:26;;;;;;;29.77;12.30;;;;;;;4.18;75.87;101031.41;5072695;28;20128;-67
2023/03/04 10:58:02;;;;;;;30.90;11.73;;;;;;;4.13;78.38;101025.59;5073587;28;20051;-67
2023/03/04 11:00:35;;;;;;;29.58;10.93;;;;;;;4.15;77.67;101031.59;5073898;28;20036;-68
2023/03/04 11:03:34;;;;;;;24.38;12.02;;;;;;;4.24;77.03;101021.22;5073833;28;20043;-68
2023/03/04 11:06:20;;;;;;;27.55;10.38;;;;;;;4.31;74.38;101021.63;5062444;28;20048;-68
2023/03/04 11:08:56;;;;;;;37.80;12.45;;;;;;;4.29;74.72;101023.50;5073525;28;20040;-67
2023/03/04 11:11:24;;;;;;;29.85;11.00;;;;;;;4.37;72.81;101026.44;5073715;28;20068;-67
2023/03/04 11:13:52;;;;;;;32.45;11.07;;;;;;;4.25;75.13;101022.91;5073645;28;20060;-66
2023/03/04 11:16:26;;;;;;;41.63;11.50;;;;;;;4.31;73.37;101013.72;5073527;28;20033;-66
2023/03/04 11:18:55;;;;;;;29.77;10.20;;;;;;;4.25;75.16;101019.44;5073163;28;20497;-66
2023/03/04 11:21:25;;;;;;;25.80;12.05;;;;;;;4.30;74.16;101020.78;5073483;28;20529;-66
2023/03/04 11:23:53;;;;;;;30.77;12.40;;;;;;;4.10;77.23;101024.03;5073494;28;20113;-66
2023/03/04 11:26:25;;;;;;;41.72;13.88;;;;;;;4.20;76.93;101018.94;5073378;28;20498;-66
2023/03/04 11:28:55;;;;;;;39.00;12.43;;;;;;;4.15;76.66;101008.72;5072011;28;20040;-66
2023/03/04 11:31:29;;;;;;;29.55;10.07;;;;;;;4.17;76.22;101008.59;5073221;28;20036;-66
2023/03/04 11:34:01;;;;;;;26.98;10.32;;;;;;;4.15;76.71;101011.34;5073392;28;20032;-66
2023/03/04 11:37:05;;;;;;;28.85;10.00;;;;;;;4.25;74.46;101003.59;5073177;28;20041;-67
2023/03/04 11:39:40;;;;;;;35.78;11.73;;;;;;;4.27;73.05;101007.81;5072915;28;20071;-67
2023/03/04 11:42:37;;;;;;;35.90;10.60;;;;;;;4.21;72.95;101010.06;5073066;28;20032;-65
2023/03/04 11:45:03;;;;;;;40.88;11.07;;;;;;;4.32;72.46;101000.41;5072971;28;20097;-67
2023/03/04 11:47:49;;;;;;;32.72;10.88;;;;;;;4.43;70.90;100994.28;5072610;28;20052;-66
2023/03/04 11:50:47;;;;;;;35.17;12.10;;;;;;;4.28;75.82;100992.81;5073048;28;20120;-66
2023/03/04 11:53:41;;;;;;;31.63;10.45;;;;;;;4.36;73.52;100995.72;5051747;28;20493;-67
2023/03/04 11:56:22;;;;;;;28.88;10.32;;;;;;;4.36;74.57;100987.81;5066967;28;20119;-67
2023/03/04 11:59:05;;;;;;;37.70;11.15;;;;;;;4.44;72.58;100985.44;5072549;28;20036;-67
2023/03/04 12:01:50;;;;;;;33.28;10.85;;;;;;;4.49;74.89;100983.28;5072817;28;20363;-67
2023/03/04 12:04:37;;;;;;;26.42;11.20;;;;;;;4.56;71.80;100983.66;5072801;28;20035;-67
2023/03/04 12:07:20;;;;;;;31.60;11.30;;;;;;;4.62;72.58;100973.47;5072494;28;20473;-67
2023/03/04 12:10:19;;;;;;;30.65;10.82;;;;;;;4.55;70.98;100972.25;5072521;28;20161;-66
2023/03/04 12:13:29;;;;;;;35.28;10.65;;;;;;;4.63;71.06;100969.06;5072487;28;20393;-64
2023/03/04 12:16:03;;;;;;;33.33;11.65;;;;;;;4.58;71.89;100972.03;5072414;28;20035;-65
2023/03/04 12:18:39;;;;;;;33.20;12.27;;;;;;;4.58;71.39;100963.28;5070932;28;20555;-66
2023/03/04 12:21:16;;;;;;;31.35;11.00;;;;;;;4.58;70.76;100958.00;5066676;28;20071;-66
2023/03/04 12:23:44;;;;;;;34.15;10.60;;;;;;;4.33;73.87;100953.75;5072113;28;20036;-66
2023/03/04 12:26:41;;;;;;;29.30;10.80;;;;;;;4.49;72.28;100954.25;5072046;28;20028;-67
2023/03/04 12:29:23;;;;;;;37.63;12.43;;;;;;;4.54;70.94;100949.47;5071473;28;20111;-66
2023/03/04 12:32:07;;;;;;;37.38;11.38;;;;;;;4.47;74.06;100948.25;5062806;28;20028;-66
2023/03/04 12:34:39;;;;;;;29.58;11.15;;;;;;;4.39;73.38;100937.47;5062338;28;20482;-66
2023/03/04 12:37:08;;;;;;;33.25;11.93;;;;;;;4.48;75.09;100944.66;5060085;28;20120;-67
2023/03/04 12:39:45;;;;;;;31.85;11.77;;;;;;;4.43;72.74;100936.25;5060795;28;20032;-66
2023/03/04 12:42:40;;;;;;;36.00;12.30;;;;;;;4.26;73.57;100934.91;5061978;28;20401;-65
2023/03/04 12:45:12;;;;;;;37.10;11.55;;;;;;;4.38;73.21;100934.94;5062517;28;20032;-66
2023/03/04 12:47:55;;;;;;;35.88;10.77;;;;;;;4.39;72.82;100934.00;5060711;28;20473;-66
2023/03/04 12:50:34;;;;;;;32.33;10.55;;;;;;;4.44;71.81;100926.56;5061070;28;20044;-66
2023/03/04 12:53:28;;;;;;;28.17;10.63;;;;;;;4.43;72.72;100928.34;5061892;28;20025;-67
2023/03/04 12:55:56;;;;;;;26.23;10.07;;;;;;;4.43;73.66;100925.69;5060803;28;20078;-66
2023/03/04 12:58:29;;;;;;;34.75;10.82;;;;;;;4.51;73.58;100918.06;5062330;28;20481;-67
2023/03/04 13:01:17;;;;;;;35.60;11.95;;;;;;;4.55;73.81;100911.56;5043088;28;20490;-66
2023/03/04 13:04:08;;;;;;;35.20;11.75;;;;;;;4.62;73.56;100909.31;5059683;28;20029;-67
2023/03/04 13:06:55;;;;;;;32.80;11.45;;;;;;;4.67;73.83;100914.22;5045437;28;20056;-66
2023/03/04 13:09:41;;;;;;;39.03;12.77;;;;;;;4.59;76.33;100907.75;5061432;28;20036;-66
2023/03/04 13:12:17;;;;;;;43.17;14.85;;;;;;;4.63;73.31;100896.00;5062203;28;20563;-65
2023/03/04 13:15:05;;;;;;;39.15;13.43;;;;;;;4.68;73.66;100914.09;5061076;28;20132;-66
2023/03/04 13:17:54;;;;;;;32.13;13.00;;;;;;;4.68;75.11;100908.00;5061443;28;20458;-66
2023/03/04 13:20:22;;;;;;;44.50;15.10;;;;;;;4.75;74.37;100912.66;5060666;28;20032;-66
2023/03/04 13:22:52;;;;;;;;;;;;;;;4.76;73.50;100910.88;5062576;28;20439;-66
2023/03/04 13:25:45;;;;;;;38.70;14.27;;;;;;;4.79;72.36;100910.63;5061070;28;19913;-66
2023/03/04 13:28:11;;;;;;;38.00;11.60;;;;;;;4.78;73.71;100904.53;5060862;28;20039;-66
2023/03/04 13:30:38;;;;;;;45.53;13.30;;;;;;;4.73;73.67;100911.94;5061212;28;20032;-66
2023/03/04 13:33:10;;;;;;;52.87;15.70;;;;;;;4.79;72.91;100908.00;5056527;28;20148;-66
2023/03/04 13:35:45;;;;;;;36.17;13.63;;;;;;;4.68;75.45;100902.72;5051110;28;20806;-66
2023/03/04 13:38:23;;;;;;;40.90;13.77;;;;;;;4.75;74.87;100904.75;5050620;28;20478;-66
2023/03/04 13:41:06;;;;;;;40.80;13.77;;;;;;;4.68;74.65;100898.28;5051473;28;20107;-66
2023/03/04 13:43:40;;;;;;;41.05;14.98;;;;;;;4.62;73.63;100889.03;5053753;28;20044;-66
2023/03/04 13:46:17;;;;;;;36.25;12.48;;;;;;;4.68;72.56;100900.06;5055321;28;20058;-66
2023/03/04 13:48:59;;;;;;;36.83;13.85;;;;;;;4.78;71.93;100896.59;5054525;28;20440;-66
2023/03/04 13:51:35;;;;;;;31.10;11.32;;;;;;;4.76;74.55;100892.38;5054973;28;20088;-66
2023/03/04 13:54:04;;;;;;;30.45;11.23;;;;;;;4.72;73.31;100888.31;5055130;28;20106;-66
2023/03/04 13:56:36;;;;;;;37.97;11.77;;;;;;;4.63;73.64;100881.97;5055054;28;20075;-66
2023/03/04 13:59:08;;;;;;;33.53;10.02;;;;;;;4.72;74.02;100889.16;5073712;28;20033;-66
2023/03/04 14:01:33;;;;;;;31.60;11.18;;;;;;;4.78;73.66;100886.03;5059049;28;20086;-67
2023/03/04 14:03:59;;;;;;;31.70;11.00;;;;;;;4.81;73.59;100885.78;5058250;28;20032;-66
2023/03/04 14:06:30;;;;;;;41.97;10.98;;;;;;;4.87;74.31;100879.19;5069889;28;20083;-67
2023/03/04 14:08:56;;;;;;;32.92;10.70;;;;;;;4.71;73.25;100874.28;5069280;28;20401;-67
2023/03/04 14:11:41;;;;;;;42.13;11.95;;;;;;;4.79;73.80;100876.31;5068418;28;20430;-67
2023/03/04 14:14:11;;;;;;;29.45;11.57;;;;;;;4.85;72.12;100871.41;5054849;28;20059;-67
2023/03/04 14:17:04;;;;;;;24.35;10.32;;;;;;;4.92;72.58;100863.84;5054659;28;20079;-65
2023/03/04 14:19:37;;;;;;;26.52;8.88;;;;;;;4.90;71.24;100863.13;5054373;28;20052;-67
2023/03/04 14:22:23;;;;;;;27.80;8.80;;;;;;;4.94;74.17;100867.19;5054630;28;20033;-65
2023/03/04 14:25:01;;;;;;;27.02;8.85;;;;;;;4.93;73.20;100867.31;5054568;28;20489;-65
2023/03/04 14:27:28;;;;;;;28.95;9.27;;;;;;;4.91;73.09;100864.81;5054092;28;20037;-66
2023/03/04 14:29:59;;;;;;;27.90;9.10;;;;;;;4.79;72.27;100857.84;5054574;28;20036;-66
2023/03/04 14:32:26;;;;;;;23.42;8.68;;;;;;;4.78;70.79;100856.16;5054371;28;20049;-67
2023/03/04 14:34:58;;;;;;;28.83;8.05;;;;;;;4.80;72.84;100854.25;5054540;28;20441;-66
2023/03/04 14:37:26;;;;;;;24.60;9.15;;;;;;;4.75;74.16;100861.69;5054076;28;20045;-67
2023/03/04 14:39:57;;;;;;;31.88;8.35;;;;;;;4.75;74.66;100856.41;5068448;28;20037;-66
2023/03/04 14:42:36;;;;;;;23.13;8.20;;;;;;;4.76;74.42;100858.06;5072945;28;20713;-67
2023/03/04 14:45:02;;;;;;;21.63;8.43;;;;;;;4.73;74.45;100853.06;5070077;28;20077;-66
2023/03/04 14:47:38;;;;;;;19.00;7.93;;;;;;;4.72;73.27;100844.28;5062474;28;20036;-72
2023/03/04 14:50:15;;;;;;;21.40;8.50;;;;;;;4.82;74.56;100847.03;5063071;28;20094;-67
2023/03/04 14:52:47;;;;;;;28.73;8.75;;;;;;;4.82;72.27;100847.88;5063001;28;20041;-68
2023/03/04 14:55:27;;;;;;;22.98;8.23;;;;;;;4.90;71.99;100849.94;5062400;28;20040;-68
2023/03/04 14:58:05;;;;;;;26.85;8.63;;;;;;;4.90;72.27;100836.72;5064276;28;20028;-67
2023/03/04 15:00:33;;;;;;;27.20;8.80;;;;;;;4.93;72.35;100835.63;5063780;28;20525;-68
2023/03/04 15:03:16;;;;;;;22.40;8.07;;;;;;;4.91;71.80;100841.03;5073975;28;20128;-67
2023/03/04 15:05:42;;;;;;;20.10;8.00;;;;;;;4.96;73.63;100838.03;5074077;28;20526;-67
2023/03/04 15:08:33;;;;;;;24.45;7.72;;;;;;;4.96;73.47;100838.03;5073531;28;20124;-67
2023/03/04 15:11:02;;;;;;;28.98;8.25;;;;;;;4.92;71.45;100845.34;5060192;28;20036;-68
2023/03/04 15:13:37;;;;;;;26.60;9.93;;;;;;;4.91;73.68;100841.03;5061608;28;20040;-68
2023/03/04 15:16:02;;;;;;;31.60;9.88;;;;;;;4.88;72.83;100836.00;5053627;28;20040;-68
2023/03/04 15:18:29;;;;;;;30.63;10.15;;;;;;;4.88;73.93;100833.34;5053332;28;20041;-68
2023/03/04 15:21:00;;;;;;;27.60;10.15;;;;;;;4.89;74.96;100835.06;5053450;28;20057;-67
2023/03/04 15:23:28;;;;;;;33.38;10.80;;;;;;;4.89;74.53;100835.06;5053771;28;20585;-68
2023/03/04 15:25:57;;;;;;;28.90;9.77;;;;;;;4.83;76.66;100830.25;5053242;28;20053;-68
2023/03/04 15:28:24;;;;;;;32.13;9.73;;;;;;;4.84;73.63;100827.50;5053092;28;20479;-67
2023/03/04 15:30:50;;;;;;;41.45;11.80;;;;;;;4.84;75.05;100829.28;5053356;28;20072;-68
2023/03/04 15:33:15;;;;;;;23.48;9.13;;;;;;;4.77;73.16;100831.59;5053280;28;20041;-68
2023/03/04 15:35:50;;;;;;;30.33;9.13;;;;;;;4.74;72.85;100833.59;5053256;28;20060;-68
2023/03/04 15:38:16;;;;;;;39.72;10.38;;;;;;;4.74;72.80;100829.16;5052935;28;20076;-69
2023/03/04 15:40:42;;;;;;;24.63;9.95;;;;;;;4.76;73.39;100822.00;5053240;28;20079;-67
2023/03/04 15:43:13;;;;;;;22.77;8.40;;;;;;;4.73;73.21;100827.50;5053186;28;20037;-67
2023/03/04 15:45:38;;;;;;;22.92;8.50;;;;;;;4.66;73.03;100825.47;5053153;28;20036;-68
2023/03/04 15:48:08;;;;;;;28.92;8.18;;;;;;;4.69;73.18;100827.84;5052739;28;20478;-66
2023/03/04 15:50:37;;;;;;;24.95;8.30;;;;;;;4.73;73.54;100829.31;5052953;28;20048;-68
2023/03/04 15:53:07;;;;;;;35.72;7.95;;;;;;;4.68;72.73;100829.66;5052978;28;20076;-69
2023/03/04 15:55:34;;;;;;;28.70;9.30;;;;;;;4.67;73.63;100821.88;5052870;28;20481;-67
2023/03/04 15:58:00;;;;;;;26.30;9.20;;;;;;;4.57;74.38;100827.88;5052536;28;20036;-69
2023/03/04 16:00:26;;;;;;;32.65;9.68;;;;;;;4.58;73.86;100818.16;5052793;28;20037;-68
2023/03/04 16:02:51;;;;;;;24.17;8.35;;;;;;;4.56;73.65;100826.19;5052828;28;20466;-68
2023/03/04 16:05:17;;;;;;;25.55;8.98;;;;;;;4.55;74.67;100819.22;5051746;28;20041;-68
2023/03/04 16:07:48;;;;;;;25.15;8.80;;;;;;;4.55;74.79;100815.75;5052417;28;20052;-68
2023/03/04 16:10:21;;;;;;;26.10;8.23;;;;;;;4.53;74.90;100820.31;5052656;28;20035;-68
2023/03/04 16:12:47;;;;;;;22.80;7.68;;;;;;;4.41;75.85;100798.38;5052523;28;20032;-69
2023/03/04 16:15:19;;;;;;;26.02;8.77;;;;;;;4.52;74.21;100823.91;5052484;28;20405;-68
2023/03/04 16:17:45;;;;;;;27.42;8.85;;;;;;;4.50;73.46;100821.41;5052239;28;20036;-69
2023/03/04 16:20:13;;;;;;;27.02;10.43;;;;;;;4.52;73.99;100831.84;5052330;28;20029;-69
2023/03/04 16:22:40;;;;;;;29.65;9.75;;;;;;;4.52;75.04;100824.75;5052401;28;20091;-69
2023/03/04 16:25:09;;;;;;;28.27;10.10;;;;;;;4.52;74.61;100826.56;5052417;28;20574;-69
2023/03/04 16:27:34;;;;;;;31.55;10.55;;;;;;;4.52;75.80;100824.75;5050545;28;20045;-68
2023/03/04 16:30:00;;;;;;;39.63;13.38;;;;;;;4.52;73.87;100816.84;5052341;28;20052;-67
2023/03/04 16:32:25;;;;;;;29.80;11.27;;;;;;;4.53;74.15;100815.88;5052100;28;20037;-68
2023/03/04 16:34:52;;;;;;;39.63;11.90;;;;;;;4.51;73.64;100816.97;5052245;28;20045;-68
2023/03/04 16:37:19;;;;;;;37.17;13.77;;;;;;;4.42;73.09;100805.31;5051851;28;20033;-69
2023/03/04 16:39:47;;;;;;;34.97;13.95;;;;;;;4.43;73.99;100809.63;5052031;28;20041;-69
2023/03/04 16:42:20;;;;;;;35.30;12.13;;;;;;;4.41;73.50;100805.44;5050771;28;20461;-69
2023/03/04 16:44:47;;;;;;;21.05;10.27;;;;;;;4.38;73.31;100811.81;5051996;28;20094;-68
2023/03/04 16:47:12;;;;;;;36.65;11.15;;;;;;;4.39;73.64;100815.28;5051617;28;20024;-68
2023/03/04 16:49:38;;;;;;;28.65;11.80;;;;;;;4.36;75.50;100811.91;5050796;28;20047;-68
2023/03/04 16:52:05;;;;;;;31.88;11.00;;;;;;;4.39;73.99;100816.13;5050964;28;20355;-67
2023/03/04 16:54:34;;;;;;;28.27;10.15;;;;;;;4.36;73.94;100817.19;5051824;28;20482;-70
2023/03/04 16:57:00;;;;;;;31.73;10.85;;;;;;;4.36;74.25;100818.97;5051683;28;20079;-66